createdAt,value
2023-03-27T19:14:42.751Z,60.81
2023-03-27T19:17:15.269Z,61.21
2023-03-27T19:19:46.575Z,61.32
2023-03-27T19:22:15.323Z,61.34
2023-03-27T19:25:15.784Z,61.38
2023-03-27T19:27:47.399Z,61.54
2023-03-27T19:30:15.766Z,61.58
2023-03-27T19:33:04.652Z,61.41
2023-03-27T19:36:23.681Z,61.94
2023-03-27T19:38:52.930Z,61.81
2023-03-27T19:41:27.106Z,61.80
2023-03-27T19:43:55.813Z,61.90
2023-03-27T19:46:31.528Z,62.00
2023-03-27T19:48:59.702Z,62.14
2023-03-27T19:51:29.274Z,62.21
2023-03-27T19:54:01.913Z,62.29
2023-03-27T19:56:31.065Z,62.28
2023-03-27T19:59:01.827Z,62.13
2023-03-27T20:01:31.035Z,62.15
2023-03-27T20:03:59.917Z,62.47
2023-03-27T20:06:30.109Z,62.69
2023-03-27T20:09:02.808Z,62.57
2023-03-27T20:11:30.831Z,62.72
2023-03-27T20:14:00.381Z,62.69
2023-03-27T20:16:29.584Z,62.99
2023-03-27T20:19:04.315Z,62.88
2023-03-27T20:21:39.023Z,63.01
2023-03-27T20:24:10.044Z,63.02
2023-03-27T20:26:39.897Z,62.98
2023-03-27T20:29:09.481Z,63.43
2023-03-27T20:31:39.174Z,63.26
2023-03-27T20:34:08.117Z,63.44
2023-03-27T20:36:38.713Z,63.21
2023-03-27T20:39:09.143Z,63.67
2023-03-27T20:42:16.797Z,63.54
2023-03-27T20:44:45.631Z,63.75
2023-03-27T20:47:14.865Z,63.59
2023-03-27T20:49:43.206Z,63.84
2023-03-27T20:52:12.999Z,63.55
2023-03-27T20:54:41.432Z,63.65
2023-03-27T20:57:08.690Z,63.93
2023-03-27T20:59:36.371Z,63.83
2023-03-27T21:02:04.144Z,63.97
2023-03-27T21:04:32.400Z,63.97
2023-03-27T21:06:59.555Z,64.15
2023-03-27T21:09:27.373Z,64.12
2023-03-27T21:11:55.393Z,63.91
2023-03-27T21:14:23.346Z,64.33
2023-03-27T21:16:50.610Z,64.17
2023-03-27T21:19:17.577Z,64.23
2023-03-27T21:21:45.282Z,64.27
2023-03-27T21:24:12.905Z,64.29
2023-03-27T21:26:39.793Z,64.20
2023-03-27T21:29:08.610Z,64.09
2023-03-27T21:31:35.192Z,64.42
2023-03-27T21:34:01.783Z,64.55
2023-03-27T21:36:29.737Z,64.58
2023-03-27T21:38:57.222Z,64.37
2023-03-27T21:41:25.560Z,64.49
2023-03-27T21:43:52.474Z,64.70
2023-03-27T21:46:19.120Z,64.49
2023-03-27T21:48:50.690Z,64.63
2023-03-27T21:51:18.540Z,64.94
2023-03-27T21:53:46.049Z,65.18
2023-03-27T21:56:13.237Z,65.10
2023-03-27T21:58:40.238Z,65.03
2023-03-27T22:01:08.393Z,64.88
2023-03-27T22:03:36.717Z,64.84
2023-03-27T22:06:11.528Z,65.37
2023-03-27T22:08:39.873Z,64.87
2023-03-27T22:11:11.593Z,65.49
2023-03-27T22:13:39.540Z,65.26
2023-03-27T22:16:12.520Z,65.57
2023-03-27T22:18:40.453Z,65.45
2023-03-27T22:21:22.911Z,65.36
2023-03-27T22:23:50.816Z,65.47
2023-03-27T22:26:19.223Z,65.69
2023-03-27T22:28:46.811Z,65.30
2023-03-27T22:31:13.514Z,65.31
2023-03-27T22:33:41.061Z,65.70
2023-03-27T22:36:11.046Z,65.23
2023-03-27T22:38:39.095Z,65.71
2023-03-27T22:41:07.516Z,65.35
2023-03-27T22:43:34.523Z,65.38
2023-03-27T22:46:09.090Z,65.62
2023-03-27T22:48:36.237Z,65.79
2023-03-27T22:51:06.649Z,65.79
2023-03-27T22:53:36.625Z,65.88
2023-03-27T22:56:10.671Z,66.17
2023-03-27T22:58:45.760Z,66.09
2023-03-27T23:01:20.968Z,66.41
2023-03-27T23:23:08.715Z,66.58
2023-03-27T23:25:35.289Z,66.65
2023-03-27T23:28:01.866Z,66.74
2023-03-27T23:30:28.487Z,66.74
2023-03-27T23:32:55.463Z,66.72
2023-03-27T23:35:22.081Z,67.11
2023-03-27T23:37:49.014Z,67.02
2023-03-27T23:40:15.995Z,66.68
2023-03-27T23:42:42.569Z,67.26
2023-03-27T23:45:09.922Z,67.08
2023-03-27T23:47:38.620Z,67.22
2023-03-27T23:50:05.880Z,67.14
2023-03-27T23:52:32.992Z,67.51
2023-03-27T23:54:59.534Z,67.51
2023-03-27T23:57:26.266Z,67.08
2023-03-27T23:59:53.150Z,67.30
